Koen, Colorado
Current Conditions -  °F | °C
As of 10:53 PM on Tuesday 21 Oct 2014 (Local Time) from KLAA Reporting Station
Clear Clear  
Wind Chill: 62°   Ceiling: Unl
Heat Index: 62°   Visibility: 10mi
Dew Point: 48°   Wind: 17mph
Humidity: 60%   Direction: 190°S
Pressure: 29.93"   Gusts: NA
Location:  37.8751°N, 102.389°W
Report Text: KLAA 220453Z AUTO 19015KT 10SM CLR 17/09 A2993 RMK AO2 SLP095 T01670089
Loading
Personal Weather Stations






























Interactive Weather Map
Tropical Storm Tracking
New forecast layout! Learn more

10-Day Weather Forecast

Advertisements
Track Severe Weather on mobile